sensor_id;sensor_type;location;lat;lon;timestamp;P1;durP1;ratioP1;P2;durP2;ratioP2
25549;SDS011;13444;50.562;7.262;2022-11-15T00:01:32;17.02;;;11.90;;
25549;SDS011;13444;50.562;7.262;2022-11-15T00:03:58;16.13;;;11.85;;
25549;SDS011;13444;50.562;7.262;2022-11-15T00:06:23;20.98;;;12.02;;
25549;SDS011;13444;50.562;7.262;2022-11-15T00:08:49;17.98;;;10.77;;
25549;SDS011;13444;50.562;7.262;2022-11-15T00:11:14;16.23;;;11.40;;
25549;SDS011;13444;50.562;7.262;2022-11-15T00:13:40;16.50;;;10.73;;
25549;SDS011;13444;50.562;7.262;2022-11-15T00:16:06;12.85;;;10.32;;
25549;SDS011;13444;50.562;7.262;2022-11-15T00:18:31;15.70;;;10.75;;
25549;SDS011;13444;50.562;7.262;2022-11-15T00:21:02;15.75;;;10.68;;
25549;SDS011;13444;50.562;7.262;2022-11-15T00:23:30;16.50;;;10.70;;
25549;SDS011;13444;50.562;7.262;2022-11-15T00:25:56;17.52;;;11.88;;
25549;SDS011;13444;50.562;7.262;2022-11-15T00:28:22;18.55;;;11.45;;
25549;SDS011;13444;50.562;7.262;2022-11-15T00:30:48;15.73;;;10.25;;
25549;SDS011;13444;50.562;7.262;2022-11-15T00:33:14;12.88;;;9.90;;
25549;SDS011;13444;50.562;7.262;2022-11-15T00:35:39;12.32;;;9.30;;
25549;SDS011;13444;50.562;7.262;2022-11-15T00:38:05;13.45;;;8.98;;
25549;SDS011;13444;50.562;7.262;2022-11-15T00:40:30;13.45;;;9.52;;
25549;SDS011;13444;50.562;7.262;2022-11-15T00:42:56;14.35;;;8.82;;
25549;SDS011;13444;50.562;7.262;2022-11-15T00:45:22;12.57;;;9.82;;
25549;SDS011;13444;50.562;7.262;2022-11-15T00:47:48;12.02;;;9.18;;
25549;SDS011;13444;50.562;7.262;2022-11-15T00:50:13;13.75;;;9.20;;
25549;SDS011;13444;50.562;7.262;2022-11-15T00:52:39;12.30;;;8.65;;
25549;SDS011;13444;50.562;7.262;2022-11-15T00:55:05;15.15;;;9.38;;
25549;SDS011;13444;50.562;7.262;2022-11-15T00:57:31;12.45;;;9.57;;
25549;SDS011;13444;50.562;7.262;2022-11-15T00:59:56;12.35;;;8.50;;
25549;SDS011;13444;50.562;7.262;2022-11-15T01:02:22;10.35;;;8.07;;
25549;SDS011;13444;50.562;7.262;2022-11-15T01:04:47;14.38;;;9.40;;
25549;SDS011;13444;50.562;7.262;2022-11-15T01:07:13;13.57;;;9.68;;
25549;SDS011;13444;50.562;7.262;2022-11-15T01:09:38;13.80;;;9.77;;
25549;SDS011;13444;50.562;7.262;2022-11-15T01:12:04;13.15;;;9.88;;
25549;SDS011;13444;50.562;7.262;2022-11-15T01:14:29;13.18;;;9.90;;
25549;SDS011;13444;50.562;7.262;2022-11-15T01:16:55;13.80;;;9.48;;
25549;SDS011;13444;50.562;7.262;2022-11-15T01:19:21;11.75;;;8.65;;
25549;SDS011;13444;50.562;7.262;2022-11-15T01:21:48;11.82;;;8.80;;
25549;SDS011;13444;50.562;7.262;2022-11-15T01:24:14;14.20;;;8.60;;
25549;SDS011;13444;50.562;7.262;2022-11-15T01:26:40;11.65;;;8.57;;
25549;SDS011;13444;50.562;7.262;2022-11-15T01:29:06;16.55;;;10.10;;
25549;SDS011;13444;50.562;7.262;2022-11-15T01:31:31;13.43;;;9.63;;
25549;SDS011;13444;50.562;7.262;2022-11-15T01:33:57;17.80;;;9.35;;
25549;SDS011;13444;50.562;7.262;2022-11-15T01:36:22;13.40;;;9.55;;
25549;SDS011;13444;50.562;7.262;2022-11-15T01:38:55;11.93;;;8.55;;
25549;SDS011;13444;50.562;7.262;2022-11-15T01:41:25;13.95;;;7.97;;
25549;SDS011;13444;50.562;7.262;2022-11-15T01:43:54;10.77;;;7.97;;
25549;SDS011;13444;50.562;7.262;2022-11-15T01:48:53;14.68;;;8.77;;
25549;SDS011;13444;50.562;7.262;2022-11-15T01:51:22;12.23;;;8.13;;
25549;SDS011;13444;50.562;7.262;2022-11-15T01:53:51;13.25;;;8.15;;
25549;SDS011;13444;50.562;7.262;2022-11-15T01:56:21;11.98;;;8.70;;
25549;SDS011;13444;50.562;7.262;2022-11-15T01:58:50;12.85;;;8.65;;
25549;SDS011;13444;50.562;7.262;2022-11-15T02:01:17;15.68;;;8.80;;
25549;SDS011;13444;50.562;7.262;2022-11-15T02:03:48;12.93;;;8.90;;
25549;SDS011;13444;50.562;7.262;2022-11-15T02:06:27;9.02;;;7.32;;
25549;SDS011;13444;50.562;7.262;2022-11-15T02:08:52;10.00;;;8.00;;
25549;SDS011;13444;50.562;7.262;2022-11-15T02:11:19;13.73;;;8.68;;
25549;SDS011;13444;50.562;7.262;2022-11-15T02:13:45;13.25;;;8.60;;
25549;SDS011;13444;50.562;7.262;2022-11-15T02:16:28;11.57;;;7.88;;
25549;SDS011;13444;50.562;7.262;2022-11-15T02:19:09;10.70;;;8.73;;
25549;SDS011;13444;50.562;7.262;2022-11-15T02:24:45;12.00;;;8.68;;
25549;SDS011;13444;50.562;7.262;2022-11-15T02:30:53;15.63;;;9.02;;
25549;SDS011;13444;50.562;7.262;2022-11-15T02:33:42;10.77;;;8.02;;
25549;SDS011;13444;50.562;7.262;2022-11-15T02:36:34;12.35;;;8.18;;
25549;SDS011;13444;50.562;7.262;2022-11-15T02:39:04;13.25;;;7.70;;
25549;SDS011;13444;50.562;7.262;2022-11-15T02:41:40;10.00;;;8.20;;
25549;SDS011;13444;50.562;7.262;2022-11-15T02:44:26;9.82;;;7.20;;
25549;SDS011;13444;50.562;7.262;2022-11-15T02:47:01;10.70;;;7.05;;
25549;SDS011;13444;50.562;7.262;2022-11-15T02:49:49;9.55;;;7.63;;
25549;SDS011;13444;50.562;7.262;2022-11-15T02:52:18;10.88;;;7.25;;
25549;SDS011;13444;50.562;7.262;2022-11-15T02:54:55;9.55;;;6.72;;
25549;SDS011;13444;50.562;7.262;2022-11-15T02:57:27;9.93;;;6.80;;
25549;SDS011;13444;50.562;7.262;2022-11-15T03:05:35;10.23;;;7.32;;
25549;SDS011;13444;50.562;7.262;2022-11-15T03:13:36;9.07;;;7.50;;
25549;SDS011;13444;50.562;7.262;2022-11-15T03:16:15;11.90;;;7.80;;
25549;SDS011;13444;50.562;7.262;2022-11-15T03:18:47;9.35;;;7.85;;
25549;SDS011;13444;50.562;7.262;2022-11-15T03:21:18;10.75;;;7.60;;
25549;SDS011;13444;50.562;7.262;2022-11-15T03:23:46;12.80;;;8.05;;
25549;SDS011;13444;50.562;7.262;2022-11-15T03:26:13;11.18;;;8.07;;
25549;SDS011;13444;50.562;7.262;2022-11-15T03:28:52;11.65;;;7.57;;
25549;SDS011;13444;50.562;7.262;2022-11-15T03:31:21;8.27;;;7.00;;
25549;SDS011;13444;50.562;7.262;2022-11-15T03:34:11;8.80;;;7.72;;
25549;SDS011;13444;50.562;7.262;2022-11-15T03:36:47;10.93;;;8.10;;
25549;SDS011;13444;50.562;7.262;2022-11-15T03:39:14;12.85;;;8.18;;
25549;SDS011;13444;50.562;7.262;2022-11-15T03:41:43;8.93;;;8.05;;
25549;SDS011;13444;50.562;7.262;2022-11-15T03:44:46;10.90;;;7.88;;
25549;SDS011;13444;50.562;7.262;2022-11-15T03:47:25;8.75;;;7.35;;
25549;SDS011;13444;50.562;7.262;2022-11-15T03:50:08;10.68;;;7.45;;
25549;SDS011;13444;50.562;7.262;2022-11-15T03:52:40;12.25;;;8.35;;
25549;SDS011;13444;50.562;7.262;2022-11-15T03:55:08;7.25;;;6.40;;
25549;SDS011;13444;50.562;7.262;2022-11-15T03:57:36;12.07;;;7.38;;
25549;SDS011;13444;50.562;7.262;2022-11-15T04:00:03;11.68;;;6.32;;
25549;SDS011;13444;50.562;7.262;2022-11-15T04:02:29;8.65;;;5.90;;
25549;SDS011;13444;50.562;7.262;2022-11-15T04:04:55;7.38;;;5.53;;
25549;SDS011;13444;50.562;7.262;2022-11-15T04:07:20;6.43;;;5.18;;
25549;SDS011;13444;50.562;7.262;2022-11-15T04:09:46;7.97;;;5.90;;
25549;SDS011;13444;50.562;7.262;2022-11-15T04:12:27;5.43;;;4.82;;
25549;SDS011;13444;50.562;7.262;2022-11-15T04:15:00;5.25;;;4.60;;
25549;SDS011;13444;50.562;7.262;2022-11-15T04:20:05;7.10;;;5.43;;
25549;SDS011;13444;50.562;7.262;2022-11-15T04:23:01;6.28;;;5.18;;
25549;SDS011;13444;50.562;7.262;2022-11-15T04:25:47;7.72;;;5.40;;
25549;SDS011;13444;50.562;7.262;2022-11-15T04:28:15;7.15;;;4.97;;
25549;SDS011;13444;50.562;7.262;2022-11-15T04:30:41;7.70;;;5.22;;
25549;SDS011;13444;50.562;7.262;2022-11-15T04:33:06;5.40;;;4.65;;
25549;SDS011;13444;50.562;7.262;2022-11-15T04:35:32;6.40;;;5.40;;
25549;SDS011;13444;50.562;7.262;2022-11-15T04:37:57;5.85;;;5.13;;
25549;SDS011;13444;50.562;7.262;2022-11-15T04:40:23;6.90;;;5.40;;
25549;SDS011;13444;50.562;7.262;2022-11-15T04:42:49;6.88;;;5.20;;
25549;SDS011;13444;50.562;7.262;2022-11-15T04:45:14;5.93;;;5.15;;
25549;SDS011;13444;50.562;7.262;2022-11-15T04:47:42;6.55;;;5.45;;
25549;SDS011;13444;50.562;7.262;2022-11-15T04:50:09;8.07;;;6.18;;
25549;SDS011;13444;50.562;7.262;2022-11-15T04:52:38;8.93;;;6.40;;
25549;SDS011;13444;50.562;7.262;2022-11-15T04:55:07;7.45;;;6.00;;
25549;SDS011;13444;50.562;7.262;2022-11-15T04:57:36;7.25;;;5.75;;
25549;SDS011;13444;50.562;7.262;2022-11-15T05:00:03;7.20;;;5.47;;
25549;SDS011;13444;50.562;7.262;2022-11-15T05:02:30;9.35;;;5.70;;
25549;SDS011;13444;50.562;7.262;2022-11-15T05:05:16;8.02;;;5.75;;
25549;SDS011;13444;50.562;7.262;2022-11-15T05:07:41;9.32;;;5.93;;
25549;SDS011;13444;50.562;7.262;2022-11-15T05:10:07;8.60;;;5.90;;
25549;SDS011;13444;50.562;7.262;2022-11-15T05:12:33;9.25;;;6.68;;
25549;SDS011;13444;50.562;7.262;2022-11-15T05:14:58;7.60;;;5.90;;
25549;SDS011;13444;50.562;7.262;2022-11-15T05:17:24;6.68;;;5.03;;
25549;SDS011;13444;50.562;7.262;2022-11-15T05:19:49;6.10;;;5.45;;
25549;SDS011;13444;50.562;7.262;2022-11-15T05:22:16;6.78;;;5.00;;
25549;SDS011;13444;50.562;7.262;2022-11-15T05:24:42;5.90;;;5.05;;
25549;SDS011;13444;50.562;7.262;2022-11-15T05:27:08;6.15;;;5.07;;
25549;SDS011;13444;50.562;7.262;2022-11-15T05:29:33;14.40;;;6.10;;
25549;SDS011;13444;50.562;7.262;2022-11-15T05:31:59;7.97;;;6.15;;
25549;SDS011;13444;50.562;7.262;2022-11-15T05:34:24;7.25;;;5.65;;
25549;SDS011;13444;50.562;7.262;2022-11-15T05:36:51;8.65;;;5.80;;
25549;SDS011;13444;50.562;7.262;2022-11-15T05:39:17;8.23;;;5.80;;
25549;SDS011;13444;50.562;7.262;2022-11-15T05:41:51;6.45;;;5.40;;
25549;SDS011;13444;50.562;7.262;2022-11-15T05:44:20;6.78;;;5.03;;
25549;SDS011;13444;50.562;7.262;2022-11-15T05:46:48;8.20;;;5.47;;
25549;SDS011;13444;50.562;7.262;2022-11-15T05:49:16;6.72;;;5.28;;
25549;SDS011;13444;50.562;7.262;2022-11-15T05:51:44;5.45;;;4.88;;
25549;SDS011;13444;50.562;7.262;2022-11-15T05:54:12;6.97;;;5.00;;
25549;SDS011;13444;50.562;7.262;2022-11-15T05:56:38;7.53;;;4.78;;
25549;SDS011;13444;50.562;7.262;2022-11-15T05:59:04;6.75;;;4.93;;
25549;SDS011;13444;50.562;7.262;2022-11-15T06:01:31;8.95;;;5.47;;
25549;SDS011;13444;50.562;7.262;2022-11-15T06:03:56;6.03;;;5.25;;
25549;SDS011;13444;50.562;7.262;2022-11-15T06:06:22;6.13;;;5.47;;
25549;SDS011;13444;50.562;7.262;2022-11-15T06:08:47;7.05;;;5.43;;
25549;SDS011;13444;50.562;7.262;2022-11-15T06:11:13;5.85;;;4.85;;
25549;SDS011;13444;50.562;7.262;2022-11-15T06:13:38;6.00;;;4.43;;
25549;SDS011;13444;50.562;7.262;2022-11-15T06:16:04;6.70;;;4.78;;
25549;SDS011;13444;50.562;7.262;2022-11-15T06:18:33;7.45;;;4.78;;
25549;SDS011;13444;50.562;7.262;2022-11-15T06:20:59;6.22;;;3.78;;
25549;SDS011;13444;50.562;7.262;2022-11-15T06:23:25;8.32;;;4.25;;
25549;SDS011;13444;50.562;7.262;2022-11-15T06:25:51;4.10;;;3.55;;
25549;SDS011;13444;50.562;7.262;2022-11-15T06:28:17;4.75;;;3.85;;
25549;SDS011;13444;50.562;7.262;2022-11-15T06:30:42;5.95;;;4.13;;
25549;SDS011;13444;50.562;7.262;2022-11-15T06:33:08;11.25;;;4.03;;
25549;SDS011;13444;50.562;7.262;2022-11-15T06:35:33;5.88;;;4.95;;
25549;SDS011;13444;50.562;7.262;2022-11-15T06:38:05;8.88;;;6.25;;
25549;SDS011;13444;50.562;7.262;2022-11-15T06:40:33;9.32;;;7.88;;
25549;SDS011;13444;50.562;7.262;2022-11-15T06:43:00;12.50;;;11.20;;
25549;SDS011;13444;50.562;7.262;2022-11-15T06:45:26;10.15;;;8.57;;
25549;SDS011;13444;50.562;7.262;2022-11-15T06:47:51;11.90;;;8.10;;
25549;SDS011;13444;50.562;7.262;2022-11-15T06:50:17;9.25;;;7.30;;
25549;SDS011;13444;50.562;7.262;2022-11-15T06:52:43;7.18;;;6.00;;
25549;SDS011;13444;50.562;7.262;2022-11-15T06:55:08;5.22;;;4.72;;
25549;SDS011;13444;50.562;7.262;2022-11-15T06:57:34;7.18;;;5.95;;
25549;SDS011;13444;50.562;7.262;2022-11-15T07:00:00;17.90;;;11.20;;
25549;SDS011;13444;50.562;7.262;2022-11-15T07:02:27;12.30;;;8.52;;
25549;SDS011;13444;50.562;7.262;2022-11-15T07:04:53;15.60;;;10.77;;
25549;SDS011;13444;50.562;7.262;2022-11-15T07:07:18;12.30;;;6.90;;
25549;SDS011;13444;50.562;7.262;2022-11-15T07:09:44;7.88;;;5.45;;
25549;SDS011;13444;50.562;7.262;2022-11-15T07:12:09;8.63;;;4.88;;
25549;SDS011;13444;50.562;7.262;2022-11-15T07:14:35;7.85;;;5.07;;
25549;SDS011;13444;50.562;7.262;2022-11-15T07:17:02;7.85;;;5.00;;
25549;SDS011;13444;50.562;7.262;2022-11-15T07:19:29;9.18;;;5.57;;
25549;SDS011;13444;50.562;7.262;2022-11-15T07:21:54;11.40;;;5.93;;
25549;SDS011;13444;50.562;7.262;2022-11-15T07:24:20;5.85;;;4.20;;
25549;SDS011;13444;50.562;7.262;2022-11-15T07:26:45;7.22;;;4.18;;
25549;SDS011;13444;50.562;7.262;2022-11-15T07:29:11;4.95;;;4.28;;
25549;SDS011;13444;50.562;7.262;2022-11-15T07:31:36;9.23;;;5.05;;
25549;SDS011;13444;50.562;7.262;2022-11-15T07:34:02;7.28;;;4.93;;
25549;SDS011;13444;50.562;7.262;2022-11-15T07:36:27;10.45;;;6.80;;
25549;SDS011;13444;50.562;7.262;2022-11-15T07:38:53;13.63;;;8.02;;
25549;SDS011;13444;50.562;7.262;2022-11-15T07:41:18;9.98;;;5.00;;
25549;SDS011;13444;50.562;7.262;2022-11-15T07:43:44;5.97;;;4.05;;
25549;SDS011;13444;50.562;7.262;2022-11-15T07:46:09;6.32;;;4.28;;
25549;SDS011;13444;50.562;7.262;2022-11-15T07:48:35;6.72;;;4.80;;
25549;SDS011;13444;50.562;7.262;2022-11-15T07:51:02;5.70;;;3.97;;
25549;SDS011;13444;50.562;7.262;2022-11-15T07:53:27;6.30;;;4.35;;
25549;SDS011;13444;50.562;7.262;2022-11-15T07:55:53;8.48;;;4.15;;
25549;SDS011;13444;50.562;7.262;2022-11-15T07:58:19;6.38;;;4.15;;
25549;SDS011;13444;50.562;7.262;2022-11-15T08:00:45;8.88;;;5.15;;
25549;SDS011;13444;50.562;7.262;2022-11-15T08:03:14;6.30;;;4.10;;
25549;SDS011;13444;50.562;7.262;2022-11-15T08:05:41;6.57;;;3.72;;
25549;SDS011;13444;50.562;7.262;2022-11-15T08:08:08;7.55;;;3.95;;
25549;SDS011;13444;50.562;7.262;2022-11-15T08:10:35;4.63;;;3.33;;
25549;SDS011;13444;50.562;7.262;2022-11-15T08:13:05;4.82;;;3.58;;
25549;SDS011;13444;50.562;7.262;2022-11-15T08:15:33;6.00;;;4.18;;
25549;SDS011;13444;50.562;7.262;2022-11-15T08:18:01;8.57;;;3.78;;
25549;SDS011;13444;50.562;7.262;2022-11-15T08:20:28;7.75;;;4.70;;
25549;SDS011;13444;50.562;7.262;2022-11-15T08:22:58;6.68;;;3.83;;
25549;SDS011;13444;50.562;7.262;2022-11-15T08:25:25;5.20;;;3.35;;
25549;SDS011;13444;50.562;7.262;2022-11-15T08:27:56;4.97;;;2.65;;
25549;SDS011;13444;50.562;7.262;2022-11-15T08:30:23;2.55;;;2.22;;
25549;SDS011;13444;50.562;7.262;2022-11-15T08:32:49;5.88;;;3.08;;
25549;SDS011;13444;50.562;7.262;2022-11-15T08:35:16;3.67;;;2.58;;
25549;SDS011;13444;50.562;7.262;2022-11-15T08:37:42;5.45;;;2.92;;
25549;SDS011;13444;50.562;7.262;2022-11-15T08:40:08;4.20;;;2.67;;
25549;SDS011;13444;50.562;7.262;2022-11-15T08:42:34;7.10;;;2.30;;
25549;SDS011;13444;50.562;7.262;2022-11-15T08:45:01;4.50;;;2.70;;
25549;SDS011;13444;50.562;7.262;2022-11-15T08:47:26;3.22;;;2.33;;
25549;SDS011;13444;50.562;7.262;2022-11-15T08:49:52;3.42;;;2.13;;
25549;SDS011;13444;50.562;7.262;2022-11-15T08:52:18;2.60;;;2.20;;
25549;SDS011;13444;50.562;7.262;2022-11-15T08:54:43;3.13;;;1.95;;
25549;SDS011;13444;50.562;7.262;2022-11-15T08:57:09;2.35;;;1.75;;
25549;SDS011;13444;50.562;7.262;2022-11-15T08:59:35;2.30;;;1.50;;
25549;SDS011;13444;50.562;7.262;2022-11-15T09:02:01;5.68;;;2.58;;
25549;SDS011;13444;50.562;7.262;2022-11-15T09:04:27;6.28;;;2.40;;
25549;SDS011;13444;50.562;7.262;2022-11-15T09:06:53;5.03;;;2.33;;
25549;SDS011;13444;50.562;7.262;2022-11-15T09:09:18;4.05;;;2.60;;
25549;SDS011;13444;50.562;7.262;2022-11-15T09:11:44;3.70;;;2.50;;
25549;SDS011;13444;50.562;7.262;2022-11-15T09:14:10;10.70;;;5.47;;
25549;SDS011;13444;50.562;7.262;2022-11-15T09:16:37;3.40;;;2.50;;
25549;SDS011;13444;50.562;7.262;2022-11-15T09:19:03;2.85;;;2.42;;
25549;SDS011;13444;50.562;7.262;2022-11-15T09:21:28;3.17;;;2.13;;
25549;SDS011;13444;50.562;7.262;2022-11-15T09:23:55;3.47;;;2.00;;
25549;SDS011;13444;50.562;7.262;2022-11-15T09:26:21;1.98;;;1.70;;
25549;SDS011;13444;50.562;7.262;2022-11-15T09:28:46;3.58;;;1.92;;
25549;SDS011;13444;50.562;7.262;2022-11-15T09:31:12;3.65;;;2.40;;
25549;SDS011;13444;50.562;7.262;2022-11-15T09:33:37;4.68;;;2.40;;
25549;SDS011;13444;50.562;7.262;2022-11-15T09:36:04;3.70;;;1.63;;
25549;SDS011;13444;50.562;7.262;2022-11-15T09:38:34;2.38;;;1.25;;
25549;SDS011;13444;50.562;7.262;2022-11-15T09:49:23;3.80;;;2.20;;
25549;SDS011;13444;50.562;7.262;2022-11-15T09:51:50;4.32;;;2.58;;
25549;SDS011;13444;50.562;7.262;2022-11-15T09:54:47;6.15;;;3.00;;
25549;SDS011;13444;50.562;7.262;2022-11-15T09:57:15;3.65;;;2.33;;
25549;SDS011;13444;50.562;7.262;2022-11-15T10:02:38;2.80;;;2.00;;
25549;SDS011;13444;50.562;7.262;2022-11-15T10:05:14;4.50;;;2.20;;
25549;SDS011;13444;50.562;7.262;2022-11-15T10:10:13;2.63;;;1.70;;
25549;SDS011;13444;50.562;7.262;2022-11-15T10:12:59;4.00;;;1.80;;
25549;SDS011;13444;50.562;7.262;2022-11-15T10:15:25;5.75;;;2.55;;
25549;SDS011;13444;50.562;7.262;2022-11-15T10:18:01;2.80;;;2.05;;
25549;SDS011;13444;50.562;7.262;2022-11-15T10:20:34;2.85;;;1.83;;
25549;SDS011;13444;50.562;7.262;2022-11-15T10:23:23;4.57;;;1.83;;
25549;SDS011;13444;50.562;7.262;2022-11-15T10:25:53;4.25;;;1.63;;
25549;SDS011;13444;50.562;7.262;2022-11-15T10:28:26;5.22;;;2.38;;
25549;SDS011;13444;50.562;7.262;2022-11-15T10:30:54;3.13;;;1.60;;
25549;SDS011;13444;50.562;7.262;2022-11-15T10:33:36;4.32;;;1.75;;
25549;SDS011;13444;50.562;7.262;2022-11-15T10:41:13;2.70;;;1.90;;
25549;SDS011;13444;50.562;7.262;2022-11-15T10:43:40;1.88;;;1.50;;
25549;SDS011;13444;50.562;7.262;2022-11-15T10:46:22;2.85;;;1.73;;
25549;SDS011;13444;50.562;7.262;2022-11-15T10:48:49;3.78;;;2.38;;
25549;SDS011;13444;50.562;7.262;2022-11-15T10:51:22;3.58;;;2.13;;
25549;SDS011;13444;50.562;7.262;2022-11-15T10:53:53;5.80;;;2.92;;
25549;SDS011;13444;50.562;7.262;2022-11-15T10:56:21;2.25;;;1.70;;
25549;SDS011;13444;50.562;7.262;2022-11-15T10:58:55;3.63;;;1.20;;
25549;SDS011;13444;50.562;7.262;2022-11-15T11:01:23;3.90;;;2.13;;
25549;SDS011;13444;50.562;7.262;2022-11-15T11:03:58;5.25;;;1.95;;
25549;SDS011;13444;50.562;7.262;2022-11-15T11:06:24;2.08;;;1.50;;
25549;SDS011;13444;50.562;7.262;2022-11-15T11:08:54;5.57;;;1.65;;
25549;SDS011;13444;50.562;7.262;2022-11-15T11:12:10;4.72;;;1.92;;
25549;SDS011;13444;50.562;7.262;2022-11-15T11:14:27;6.95;;;2.85;;
25549;SDS011;13444;50.562;7.262;2022-11-15T11:19:39;2.75;;;1.77;;
25549;SDS011;13444;50.562;7.262;2022-11-15T11:22:20;5.63;;;2.25;;
25549;SDS011;13444;50.562;7.262;2022-11-15T11:35:14;5.50;;;2.38;;
25549;SDS011;13444;50.562;7.262;2022-11-15T11:38:02;5.95;;;3.30;;
25549;SDS011;13444;50.562;7.262;2022-11-15T11:51:39;4.63;;;2.20;;
25549;SDS011;13444;50.562;7.262;2022-11-15T11:54:12;8.52;;;3.15;;
25549;SDS011;13444;50.562;7.262;2022-11-15T11:56:44;3.80;;;2.03;;
25549;SDS011;13444;50.562;7.262;2022-11-15T12:04:52;2.47;;;1.80;;
25549;SDS011;13444;50.562;7.262;2022-11-15T12:07:28;2.58;;;2.10;;
25549;SDS011;13444;50.562;7.262;2022-11-15T12:13:23;3.55;;;2.13;;
25549;SDS011;13444;50.562;7.262;2022-11-15T12:15:53;14.50;;;2.60;;
25549;SDS011;13444;50.562;7.262;2022-11-15T12:18:24;5.50;;;2.10;;
25549;SDS011;13444;50.562;7.262;2022-11-15T12:20:55;6.90;;;1.90;;
25549;SDS011;13444;50.562;7.262;2022-11-15T12:23:27;3.75;;;1.88;;
25549;SDS011;13444;50.562;7.262;2022-11-15T12:28:38;4.72;;;2.03;;
25549;SDS011;13444;50.562;7.262;2022-11-15T12:31:16;2.88;;;1.92;;
25549;SDS011;13444;50.562;7.262;2022-11-15T12:33:48;4.10;;;2.10;;
25549;SDS011;13444;50.562;7.262;2022-11-15T12:38:56;5.93;;;2.30;;
25549;SDS011;13444;50.562;7.262;2022-11-15T12:41:30;2.75;;;2.30;;
25549;SDS011;13444;50.562;7.262;2022-11-15T12:43:56;3.95;;;2.42;;
25549;SDS011;13444;50.562;7.262;2022-11-15T13:02:18;2.88;;;2.13;;
25549;SDS011;13444;50.562;7.262;2022-11-15T13:04:49;3.97;;;1.95;;
25549;SDS011;13444;50.562;7.262;2022-11-15T13:10:00;4.38;;;2.50;;
25549;SDS011;13444;50.562;7.262;2022-11-15T13:22:44;5.15;;;3.25;;
25549;SDS011;13444;50.562;7.262;2022-11-15T13:25:24;4.07;;;2.47;;
25549;SDS011;13444;50.562;7.262;2022-11-15T13:30:48;4.00;;;1.92;;
25549;SDS011;13444;50.562;7.262;2022-11-15T13:33:20;2.53;;;1.90;;
25549;SDS011;13444;50.562;7.262;2022-11-15T13:35:49;4.40;;;2.08;;
25549;SDS011;13444;50.562;7.262;2022-11-15T13:40:49;4.22;;;1.60;;
25549;SDS011;13444;50.562;7.262;2022-11-15T13:46:03;5.53;;;1.70;;
25549;SDS011;13444;50.562;7.262;2022-11-15T13:48:37;4.45;;;1.42;;
25549;SDS011;13444;50.562;7.262;2022-11-15T13:51:04;3.55;;;1.38;;
25549;SDS011;13444;50.562;7.262;2022-11-15T13:53:34;4.90;;;1.40;;
25549;SDS011;13444;50.562;7.262;2022-11-15T13:56:03;3.80;;;1.65;;
25549;SDS011;13444;50.562;7.262;2022-11-15T13:58:30;5.53;;;1.40;;
25549;SDS011;13444;50.562;7.262;2022-11-15T14:01:00;3.20;;;1.65;;
25549;SDS011;13444;50.562;7.262;2022-11-15T14:03:28;3.20;;;1.60;;
25549;SDS011;13444;50.562;7.262;2022-11-15T14:08:31;13.18;;;7.15;;
25549;SDS011;13444;50.562;7.262;2022-11-15T14:11:12;5.28;;;3.42;;
25549;SDS011;13444;50.562;7.262;2022-11-15T14:13:39;2.20;;;1.83;;
25549;SDS011;13444;50.562;7.262;2022-11-15T14:16:18;3.92;;;1.50;;
25549;SDS011;13444;50.562;7.262;2022-11-15T14:21:15;5.57;;;1.70;;
25549;SDS011;13444;50.562;7.262;2022-11-15T14:23:40;2.70;;;1.30;;
25549;SDS011;13444;50.562;7.262;2022-11-15T14:26:10;3.92;;;1.48;;
25549;SDS011;13444;50.562;7.262;2022-11-15T14:28:56;2.42;;;1.50;;
25549;SDS011;13444;50.562;7.262;2022-11-15T14:31:42;2.75;;;1.63;;
25549;SDS011;13444;50.562;7.262;2022-11-15T14:34:08;5.35;;;1.70;;
25549;SDS011;13444;50.562;7.262;2022-11-15T14:36:33;3.15;;;1.58;;
25549;SDS011;13444;50.562;7.262;2022-11-15T14:38:59;2.15;;;1.52;;
25549;SDS011;13444;50.562;7.262;2022-11-15T14:41:26;5.13;;;2.13;;
25549;SDS011;13444;50.562;7.262;2022-11-15T14:43:52;2.30;;;1.73;;
25549;SDS011;13444;50.562;7.262;2022-11-15T14:46:18;3.17;;;1.77;;
25549;SDS011;13444;50.562;7.262;2022-11-15T14:48:44;3.72;;;1.77;;
25549;SDS011;13444;50.562;7.262;2022-11-15T14:51:14;3.20;;;1.73;;
25549;SDS011;13444;50.562;7.262;2022-11-15T14:53:41;4.15;;;1.85;;
25549;SDS011;13444;50.562;7.262;2022-11-15T14:56:08;2.28;;;1.50;;
25549;SDS011;13444;50.562;7.262;2022-11-15T14:58:34;2.10;;;1.50;;
25549;SDS011;13444;50.562;7.262;2022-11-15T15:00:59;1.92;;;1.60;;
25549;SDS011;13444;50.562;7.262;2022-11-15T15:03:28;2.33;;;1.70;;
25549;SDS011;13444;50.562;7.262;2022-11-15T15:05:53;2.13;;;1.50;;
25549;SDS011;13444;50.562;7.262;2022-11-15T15:08:19;3.65;;;1.60;;
25549;SDS011;13444;50.562;7.262;2022-11-15T15:10:45;3.10;;;1.60;;
25549;SDS011;13444;50.562;7.262;2022-11-15T15:13:18;3.72;;;1.60;;
25549;SDS011;13444;50.562;7.262;2022-11-15T15:15:45;6.28;;;1.63;;
25549;SDS011;13444;50.562;7.262;2022-11-15T15:18:11;3.15;;;1.88;;
25549;SDS011;13444;50.562;7.262;2022-11-15T15:20:38;4.50;;;1.80;;
25549;SDS011;13444;50.562;7.262;2022-11-15T15:23:07;3.40;;;2.00;;
25549;SDS011;13444;50.562;7.262;2022-11-15T15:25:39;2.42;;;2.00;;
25549;SDS011;13444;50.562;7.262;2022-11-15T15:28:06;3.67;;;1.85;;
25549;SDS011;13444;50.562;7.262;2022-11-15T15:30:32;3.38;;;2.22;;
25549;SDS011;13444;50.562;7.262;2022-11-15T15:32:57;4.03;;;1.88;;
25549;SDS011;13444;50.562;7.262;2022-11-15T15:35:23;5.28;;;2.00;;
25549;SDS011;13444;50.562;7.262;2022-11-15T15:37:55;4.75;;;1.80;;
25549;SDS011;13444;50.562;7.262;2022-11-15T15:40:21;2.75;;;1.92;;
25549;SDS011;13444;50.562;7.262;2022-11-15T15:42:49;6.95;;;2.05;;
25549;SDS011;13444;50.562;7.262;2022-11-15T15:45:15;2.05;;;1.63;;
25549;SDS011;13444;50.562;7.262;2022-11-15T15:47:41;3.78;;;1.75;;
25549;SDS011;13444;50.562;7.262;2022-11-15T15:50:21;5.75;;;2.10;;
25549;SDS011;13444;50.562;7.262;2022-11-15T15:52:49;2.85;;;1.75;;
25549;SDS011;13444;50.562;7.262;2022-11-15T15:55:15;2.80;;;2.00;;
25549;SDS011;13444;50.562;7.262;2022-11-15T15:57:41;4.78;;;2.03;;
25549;SDS011;13444;50.562;7.262;2022-11-15T16:00:07;2.33;;;1.92;;
25549;SDS011;13444;50.562;7.262;2022-11-15T16:02:34;5.53;;;2.35;;
25549;SDS011;13444;50.562;7.262;2022-11-15T16:05:03;4.97;;;1.67;;
25549;SDS011;13444;50.562;7.262;2022-11-15T16:07:29;3.80;;;2.13;;
25549;SDS011;13444;50.562;7.262;2022-11-15T16:09:54;5.22;;;1.70;;
25549;SDS011;13444;50.562;7.262;2022-11-15T16:12:27;3.35;;;1.88;;
25549;SDS011;13444;50.562;7.262;2022-11-15T16:14:58;3.20;;;2.20;;
25549;SDS011;13444;50.562;7.262;2022-11-15T16:17:24;3.17;;;1.83;;
25549;SDS011;13444;50.562;7.262;2022-11-15T16:19:51;3.75;;;2.00;;
25549;SDS011;13444;50.562;7.262;2022-11-15T16:22:17;2.92;;;1.63;;
25549;SDS011;13444;50.562;7.262;2022-11-15T16:24:42;2.67;;;2.10;;
25549;SDS011;13444;50.562;7.262;2022-11-15T16:27:12;2.97;;;1.75;;
25549;SDS011;13444;50.562;7.262;2022-11-15T16:29:39;3.08;;;1.98;;
25549;SDS011;13444;50.562;7.262;2022-11-15T16:32:05;4.15;;;2.10;;
25549;SDS011;13444;50.562;7.262;2022-11-15T16:34:31;4.32;;;2.40;;
25549;SDS011;13444;50.562;7.262;2022-11-15T16:36:56;7.65;;;2.78;;
25549;SDS011;13444;50.562;7.262;2022-11-15T16:39:22;2.85;;;2.05;;
25549;SDS011;13444;50.562;7.262;2022-11-15T16:41:47;3.58;;;2.00;;
25549;SDS011;13444;50.562;7.262;2022-11-15T16:44:13;3.47;;;1.83;;
25549;SDS011;13444;50.562;7.262;2022-11-15T16:46:40;7.22;;;2.35;;
25549;SDS011;13444;50.562;7.262;2022-11-15T16:49:13;4.03;;;2.47;;
25549;SDS011;13444;50.562;7.262;2022-11-15T16:51:39;3.92;;;2.00;;
25549;SDS011;13444;50.562;7.262;2022-11-15T16:54:09;4.53;;;2.08;;
25549;SDS011;13444;50.562;7.262;2022-11-15T16:56:35;5.32;;;2.75;;